sensor_id;sensor_type;location;lat;lon;timestamp;P1;durP1;ratioP1;P2;durP2;ratioP2
4428;SDS011;2227;47.810;8.810;2023-05-07T04:33:01;960.67;;;881.42;;
4428;SDS011;2227;47.810;8.810;2023-05-07T04:35:28;959.53;;;880.28;;
4428;SDS011;2227;47.810;8.810;2023-05-07T04:37:55;955.22;;;875.97;;
4428;SDS011;2227;47.810;8.810;2023-05-07T04:40:21;957.90;;;878.63;;
4428;SDS011;2227;47.810;8.810;2023-05-07T04:42:48;959.08;;;879.88;;
4428;SDS011;2227;47.810;8.810;2023-05-07T04:45:15;952.28;;;873.17;;
4428;SDS011;2227;47.810;8.810;2023-05-07T04:47:42;953.97;;;874.88;;
4428;SDS011;2227;47.810;8.810;2023-05-07T04:50:09;963.88;;;884.40;;
4428;SDS011;2227;47.810;8.810;2023-05-07T04:52:37;960.53;;;881.25;;
4428;SDS011;2227;47.810;8.810;2023-05-07T04:55:04;961.28;;;882.08;;
4428;SDS011;2227;47.810;8.810;2023-05-07T04:57:30;963.87;;;884.60;;
4428;SDS011;2227;47.810;8.810;2023-05-07T04:59:57;962.63;;;883.22;;
4428;SDS011;2227;47.810;8.810;2023-05-07T05:02:24;960.67;;;881.22;;
4428;SDS011;2227;47.810;8.810;2023-05-07T05:04:50;965.35;;;885.95;;
4428;SDS011;2227;47.810;8.810;2023-05-07T05:07:17;961.67;;;882.33;;
4428;SDS011;2227;47.810;8.810;2023-05-07T05:09:44;964.05;;;884.97;;
4428;SDS011;2227;47.810;8.810;2023-05-07T05:12:11;965.70;;;886.13;;
4428;SDS011;2227;47.810;8.810;2023-05-07T05:14:37;971.20;;;891.60;;
4428;SDS011;2227;47.810;8.810;2023-05-07T05:17:04;970.67;;;891.67;;
4428;SDS011;2227;47.810;8.810;2023-05-07T05:19:31;970.75;;;892.08;;
4428;SDS011;2227;47.810;8.810;2023-05-07T05:21:57;973.85;;;895.10;;
4428;SDS011;2227;47.810;8.810;2023-05-07T05:24:24;976.25;;;897.25;;
4428;SDS011;2227;47.810;8.810;2023-05-07T05:26:52;985.58;;;906.47;;
4428;SDS011;2227;47.810;8.810;2023-05-07T05:29:19;977.20;;;898.42;;
4428;SDS011;2227;47.810;8.810;2023-05-07T05:31:46;982.53;;;903.63;;
4428;SDS011;2227;47.810;8.810;2023-05-07T05:34:13;988.13;;;908.85;;
4428;SDS011;2227;47.810;8.810;2023-05-07T05:36:40;998.03;;;918.53;;
4428;SDS011;2227;47.810;8.810;2023-05-07T05:39:06;1000.40;;;920.92;;
4428;SDS011;2227;47.810;8.810;2023-05-07T05:41:34;1009.13;;;929.33;;
4428;SDS011;2227;47.810;8.810;2023-05-07T05:44:01;1010.13;;;930.63;;
4428;SDS011;2227;47.810;8.810;2023-05-07T05:46:27;1010.53;;;931.47;;
4428;SDS011;2227;47.810;8.810;2023-05-07T05:48:54;1014.58;;;935.33;;
4428;SDS011;2227;47.810;8.810;2023-05-07T05:51:21;1019.58;;;940.03;;
4428;SDS011;2227;47.810;8.810;2023-05-07T05:53:48;1016.70;;;937.50;;
4428;SDS011;2227;47.810;8.810;2023-05-07T05:56:15;1019.65;;;940.55;;
4428;SDS011;2227;47.810;8.810;2023-05-07T05:58:42;1022.75;;;943.55;;
4428;SDS011;2227;47.810;8.810;2023-05-07T06:01:08;1021.15;;;942.20;;
4428;SDS011;2227;47.810;8.810;2023-05-07T06:03:36;4.95;;;4.00;;
4428;SDS011;2227;47.810;8.810;2023-05-07T06:06:02;8.30;;;3.65;;
4428;SDS011;2227;47.810;8.810;2023-05-07T06:08:29;3.90;;;3.30;;
4428;SDS011;2227;47.810;8.810;2023-05-07T06:10:56;4.68;;;3.63;;
4428;SDS011;2227;47.810;8.810;2023-05-07T06:13:23;5.10;;;3.75;;
4428;SDS011;2227;47.810;8.810;2023-05-07T06:15:52;5.70;;;4.00;;
4428;SDS011;2227;47.810;8.810;2023-05-07T06:18:18;4.15;;;3.60;;
4428;SDS011;2227;47.810;8.810;2023-05-07T06:20:45;4.95;;;3.08;;
4428;SDS011;2227;47.810;8.810;2023-05-07T06:23:11;5.30;;;3.83;;
4428;SDS011;2227;47.810;8.810;2023-05-07T06:25:47;6.53;;;3.90;;
4428;SDS011;2227;47.810;8.810;2023-05-07T06:28:15;5.22;;;3.80;;
4428;SDS011;2227;47.810;8.810;2023-05-07T06:30:42;6.55;;;3.70;;
4428;SDS011;2227;47.810;8.810;2023-05-07T06:33:09;5.43;;;3.95;;
4428;SDS011;2227;47.810;8.810;2023-05-07T06:35:35;5.15;;;3.83;;
4428;SDS011;2227;47.810;8.810;2023-05-07T06:38:02;5.70;;;4.05;;
4428;SDS011;2227;47.810;8.810;2023-05-07T06:40:29;5.47;;;3.85;;
4428;SDS011;2227;47.810;8.810;2023-05-07T06:42:55;4.97;;;3.33;;
4428;SDS011;2227;47.810;8.810;2023-05-07T06:45:22;5.80;;;4.35;;
4428;SDS011;2227;47.810;8.810;2023-05-07T06:47:49;5.25;;;3.90;;
4428;SDS011;2227;47.810;8.810;2023-05-07T06:50:16;5.30;;;4.38;;
4428;SDS011;2227;47.810;8.810;2023-05-07T06:52:43;5.50;;;4.10;;
4428;SDS011;2227;47.810;8.810;2023-05-07T06:55:09;5.25;;;4.10;;
4428;SDS011;2227;47.810;8.810;2023-05-07T06:57:37;5.75;;;4.05;;
4428;SDS011;2227;47.810;8.810;2023-05-07T07:00:05;7.32;;;4.03;;
4428;SDS011;2227;47.810;8.810;2023-05-07T07:02:36;5.47;;;4.00;;
4428;SDS011;2227;47.810;8.810;2023-05-07T07:05:03;5.90;;;3.97;;
4428;SDS011;2227;47.810;8.810;2023-05-07T07:07:30;5.68;;;4.32;;
4428;SDS011;2227;47.810;8.810;2023-05-07T07:09:56;4.68;;;3.47;;
4428;SDS011;2227;47.810;8.810;2023-05-07T07:12:23;5.13;;;3.53;;
4428;SDS011;2227;47.810;8.810;2023-05-07T07:14:52;4.63;;;3.78;;
4428;SDS011;2227;47.810;8.810;2023-05-07T07:17:20;5.00;;;3.92;;
4428;SDS011;2227;47.810;8.810;2023-05-07T07:19:47;6.90;;;4.22;;
4428;SDS011;2227;47.810;8.810;2023-05-07T07:22:13;5.07;;;3.45;;
4428;SDS011;2227;47.810;8.810;2023-05-07T07:24:40;6.63;;;3.83;;
4428;SDS011;2227;47.810;8.810;2023-05-07T07:27:07;4.82;;;3.40;;
4428;SDS011;2227;47.810;8.810;2023-05-07T07:29:33;4.95;;;3.50;;
4428;SDS011;2227;47.810;8.810;2023-05-07T07:32:00;4.68;;;3.35;;
4428;SDS011;2227;47.810;8.810;2023-05-07T07:34:27;4.95;;;3.95;;
4428;SDS011;2227;47.810;8.810;2023-05-07T07:36:54;5.35;;;3.38;;
4428;SDS011;2227;47.810;8.810;2023-05-07T07:39:21;5.53;;;3.85;;
4428;SDS011;2227;47.810;8.810;2023-05-07T07:41:47;5.32;;;4.05;;
4428;SDS011;2227;47.810;8.810;2023-05-07T07:44:14;5.10;;;3.70;;
4428;SDS011;2227;47.810;8.810;2023-05-07T07:46:42;5.25;;;3.83;;
4428;SDS011;2227;47.810;8.810;2023-05-07T07:49:08;6.00;;;4.50;;
4428;SDS011;2227;47.810;8.810;2023-05-07T07:51:35;6.75;;;4.32;;
4428;SDS011;2227;47.810;8.810;2023-05-07T07:54:02;5.40;;;3.88;;
4428;SDS011;2227;47.810;8.810;2023-05-07T07:56:29;5.93;;;4.43;;
4428;SDS011;2227;47.810;8.810;2023-05-07T07:58:55;5.25;;;3.75;;
4428;SDS011;2227;47.810;8.810;2023-05-07T08:01:22;5.38;;;4.63;;
4428;SDS011;2227;47.810;8.810;2023-05-07T08:03:49;6.00;;;4.38;;
4428;SDS011;2227;47.810;8.810;2023-05-07T08:06:16;6.53;;;4.28;;
4428;SDS011;2227;47.810;8.810;2023-05-07T08:08:43;5.75;;;4.35;;
4428;SDS011;2227;47.810;8.810;2023-05-07T08:11:09;6.47;;;5.03;;
4428;SDS011;2227;47.810;8.810;2023-05-07T08:13:36;8.05;;;5.80;;
4428;SDS011;2227;47.810;8.810;2023-05-07T08:16:04;6.18;;;4.78;;
4428;SDS011;2227;47.810;8.810;2023-05-07T08:18:31;5.82;;;4.47;;
4428;SDS011;2227;47.810;8.810;2023-05-07T08:20:58;6.18;;;4.50;;
4428;SDS011;2227;47.810;8.810;2023-05-07T08:23:24;5.65;;;4.40;;
4428;SDS011;2227;47.810;8.810;2023-05-07T08:25:53;5.28;;;4.32;;
4428;SDS011;2227;47.810;8.810;2023-05-07T08:28:19;7.00;;;4.88;;
4428;SDS011;2227;47.810;8.810;2023-05-07T08:30:47;5.65;;;4.65;;
4428;SDS011;2227;47.810;8.810;2023-05-07T08:33:14;5.38;;;4.32;;
4428;SDS011;2227;47.810;8.810;2023-05-07T08:35:40;5.60;;;4.07;;
4428;SDS011;2227;47.810;8.810;2023-05-07T08:38:07;4.60;;;4.03;;
4428;SDS011;2227;47.810;8.810;2023-05-07T08:40:37;6.45;;;4.07;;
4428;SDS011;2227;47.810;8.810;2023-05-07T08:43:05;5.50;;;4.30;;
4428;SDS011;2227;47.810;8.810;2023-05-07T08:45:32;5.85;;;4.30;;
4428;SDS011;2227;47.810;8.810;2023-05-07T08:48:01;6.38;;;4.57;;
4428;SDS011;2227;47.810;8.810;2023-05-07T08:50:29;6.32;;;3.63;;
4428;SDS011;2227;47.810;8.810;2023-05-07T08:52:56;5.63;;;4.15;;
4428;SDS011;2227;47.810;8.810;2023-05-07T08:55:23;6.43;;;4.70;;
4428;SDS011;2227;47.810;8.810;2023-05-07T08:57:50;5.93;;;4.00;;
4428;SDS011;2227;47.810;8.810;2023-05-07T09:00:19;6.00;;;4.75;;
4428;SDS011;2227;47.810;8.810;2023-05-07T09:02:45;6.20;;;3.92;;
4428;SDS011;2227;47.810;8.810;2023-05-07T09:05:12;5.15;;;3.88;;
4428;SDS011;2227;47.810;8.810;2023-05-07T09:07:39;5.25;;;3.83;;
4428;SDS011;2227;47.810;8.810;2023-05-07T09:10:06;4.95;;;3.53;;
4428;SDS011;2227;47.810;8.810;2023-05-07T09:12:33;4.15;;;3.38;;
4428;SDS011;2227;47.810;8.810;2023-05-07T09:15:02;6.25;;;3.53;;
4428;SDS011;2227;47.810;8.810;2023-05-07T09:17:29;4.75;;;3.80;;
4428;SDS011;2227;47.810;8.810;2023-05-07T09:19:56;4.45;;;3.03;;
4428;SDS011;2227;47.810;8.810;2023-05-07T09:22:27;5.18;;;3.60;;
4428;SDS011;2227;47.810;8.810;2023-05-07T09:24:54;4.50;;;2.72;;
4428;SDS011;2227;47.810;8.810;2023-05-07T09:27:20;6.47;;;2.83;;
4428;SDS011;2227;47.810;8.810;2023-05-07T09:29:47;3.97;;;2.85;;
4428;SDS011;2227;47.810;8.810;2023-05-07T09:32:14;4.32;;;3.00;;
4428;SDS011;2227;47.810;8.810;2023-05-07T09:34:41;3.72;;;2.47;;
4428;SDS011;2227;47.810;8.810;2023-05-07T09:37:08;3.50;;;2.60;;
4428;SDS011;2227;47.810;8.810;2023-05-07T09:39:38;4.47;;;2.22;;
4428;SDS011;2227;47.810;8.810;2023-05-07T09:42:06;4.57;;;2.47;;
4428;SDS011;2227;47.810;8.810;2023-05-07T09:44:34;3.60;;;2.33;;
4428;SDS011;2227;47.810;8.810;2023-05-07T09:47:01;2.78;;;2.00;;
4428;SDS011;2227;47.810;8.810;2023-05-07T09:49:33;3.67;;;2.33;;
4428;SDS011;2227;47.810;8.810;2023-05-07T09:52:03;3.90;;;2.13;;
4428;SDS011;2227;47.810;8.810;2023-05-07T09:54:36;4.72;;;2.47;;
4428;SDS011;2227;47.810;8.810;2023-05-07T09:57:04;3.10;;;2.05;;
4428;SDS011;2227;47.810;8.810;2023-05-07T09:59:33;5.45;;;2.50;;
4428;SDS011;2227;47.810;8.810;2023-05-07T10:02:01;3.90;;;2.35;;
4428;SDS011;2227;47.810;8.810;2023-05-07T10:04:30;2.85;;;1.92;;
4428;SDS011;2227;47.810;8.810;2023-05-07T10:06:58;3.70;;;2.00;;
4428;SDS011;2227;47.810;8.810;2023-05-07T10:09:26;3.60;;;1.83;;
4428;SDS011;2227;47.810;8.810;2023-05-07T10:11:52;3.22;;;1.90;;
4428;SDS011;2227;47.810;8.810;2023-05-07T10:14:21;3.13;;;1.88;;
4428;SDS011;2227;47.810;8.810;2023-05-07T10:16:48;2.70;;;1.70;;
4428;SDS011;2227;47.810;8.810;2023-05-07T10:19:15;3.17;;;1.88;;
4428;SDS011;2227;47.810;8.810;2023-05-07T10:21:44;5.05;;;2.00;;
4428;SDS011;2227;47.810;8.810;2023-05-07T10:24:21;2.90;;;1.73;;
4428;SDS011;2227;47.810;8.810;2023-05-07T10:26:53;3.17;;;1.95;;
4428;SDS011;2227;47.810;8.810;2023-05-07T10:32:14;2.80;;;1.70;;
4428;SDS011;2227;47.810;8.810;2023-05-07T10:35:06;3.60;;;2.22;;
4428;SDS011;2227;47.810;8.810;2023-05-07T10:37:38;4.40;;;2.10;;
4428;SDS011;2227;47.810;8.810;2023-05-07T10:40:06;3.55;;;1.80;;
4428;SDS011;2227;47.810;8.810;2023-05-07T10:42:34;5.30;;;1.80;;
4428;SDS011;2227;47.810;8.810;2023-05-07T10:45:13;4.40;;;2.05;;
4428;SDS011;2227;47.810;8.810;2023-05-07T10:50:52;3.80;;;2.33;;
4428;SDS011;2227;47.810;8.810;2023-05-07T10:53:46;3.58;;;2.45;;
4428;SDS011;2227;47.810;8.810;2023-05-07T10:58:43;4.13;;;2.00;;
4428;SDS011;2227;47.810;8.810;2023-05-07T11:01:09;4.07;;;1.90;;
4428;SDS011;2227;47.810;8.810;2023-05-07T11:06:40;3.90;;;2.08;;
4428;SDS011;2227;47.810;8.810;2023-05-07T11:09:07;5.90;;;1.98;;
4428;SDS011;2227;47.810;8.810;2023-05-07T11:11:47;4.05;;;2.40;;
4428;SDS011;2227;47.810;8.810;2023-05-07T11:17:09;3.40;;;2.28;;
4428;SDS011;2227;47.810;8.810;2023-05-07T11:19:49;4.25;;;2.65;;
4428;SDS011;2227;47.810;8.810;2023-05-07T11:25:03;4.30;;;2.40;;
4428;SDS011;2227;47.810;8.810;2023-05-07T11:27:30;3.90;;;2.25;;
4428;SDS011;2227;47.810;8.810;2023-05-07T11:29:57;3.50;;;1.85;;
4428;SDS011;2227;47.810;8.810;2023-05-07T11:32:25;3.20;;;2.00;;
4428;SDS011;2227;47.810;8.810;2023-05-07T11:34:57;3.90;;;2.20;;
4428;SDS011;2227;47.810;8.810;2023-05-07T11:37:25;3.55;;;2.30;;
4428;SDS011;2227;47.810;8.810;2023-05-07T11:40:05;3.63;;;2.50;;
4428;SDS011;2227;47.810;8.810;2023-05-07T11:42:34;3.85;;;2.28;;
4428;SDS011;2227;47.810;8.810;2023-05-07T11:45:03;2.88;;;1.83;;
4428;SDS011;2227;47.810;8.810;2023-05-07T11:47:32;3.17;;;2.20;;
4428;SDS011;2227;47.810;8.810;2023-05-07T11:50:06;3.25;;;2.58;;
4428;SDS011;2227;47.810;8.810;2023-05-07T11:52:34;4.75;;;2.40;;
4428;SDS011;2227;47.810;8.810;2023-05-07T11:55:02;3.42;;;2.40;;
4428;SDS011;2227;47.810;8.810;2023-05-07T11:57:30;3.30;;;2.10;;
4428;SDS011;2227;47.810;8.810;2023-05-07T11:59:59;4.43;;;2.42;;
4428;SDS011;2227;47.810;8.810;2023-05-07T12:02:28;4.90;;;3.03;;
4428;SDS011;2227;47.810;8.810;2023-05-07T12:04:55;3.83;;;2.72;;
4428;SDS011;2227;47.810;8.810;2023-05-07T12:07:23;4.65;;;2.58;;
4428;SDS011;2227;47.810;8.810;2023-05-07T12:09:51;3.85;;;2.35;;
4428;SDS011;2227;47.810;8.810;2023-05-07T12:12:18;5.22;;;2.67;;
4428;SDS011;2227;47.810;8.810;2023-05-07T12:14:45;5.82;;;3.00;;
4428;SDS011;2227;47.810;8.810;2023-05-07T12:17:12;3.97;;;2.65;;
4428;SDS011;2227;47.810;8.810;2023-05-07T12:19:41;4.90;;;2.67;;
4428;SDS011;2227;47.810;8.810;2023-05-07T12:22:10;5.35;;;2.80;;
4428;SDS011;2227;47.810;8.810;2023-05-07T12:24:45;4.60;;;3.10;;
4428;SDS011;2227;47.810;8.810;2023-05-07T12:27:13;7.10;;;2.92;;
4428;SDS011;2227;47.810;8.810;2023-05-07T12:29:44;6.05;;;2.60;;
4428;SDS011;2227;47.810;8.810;2023-05-07T12:32:13;4.38;;;2.60;;
4428;SDS011;2227;47.810;8.810;2023-05-07T12:34:43;4.65;;;2.60;;
4428;SDS011;2227;47.810;8.810;2023-05-07T12:37:11;3.90;;;2.83;;
4428;SDS011;2227;47.810;8.810;2023-05-07T12:39:48;3.60;;;2.50;;
4428;SDS011;2227;47.810;8.810;2023-05-07T12:42:16;3.20;;;2.50;;
4428;SDS011;2227;47.810;8.810;2023-05-07T12:44:45;3.85;;;2.60;;
4428;SDS011;2227;47.810;8.810;2023-05-07T12:47:13;3.83;;;2.63;;
4428;SDS011;2227;47.810;8.810;2023-05-07T12:49:41;6.35;;;2.45;;
4428;SDS011;2227;47.810;8.810;2023-05-07T12:52:09;3.05;;;1.60;;
4428;SDS011;2227;47.810;8.810;2023-05-07T12:54:37;2.58;;;1.10;;
4428;SDS011;2227;47.810;8.810;2023-05-07T12:57:05;2.13;;;1.40;;
4428;SDS011;2227;47.810;8.810;2023-05-07T12:59:37;3.47;;;1.27;;
4428;SDS011;2227;47.810;8.810;2023-05-07T13:02:06;1.60;;;1.10;;
4428;SDS011;2227;47.810;8.810;2023-05-07T13:04:34;2.42;;;1.10;;
4428;SDS011;2227;47.810;8.810;2023-05-07T13:07:01;1.75;;;0.95;;
4428;SDS011;2227;47.810;8.810;2023-05-07T13:09:28;2.00;;;1.00;;
4428;SDS011;2227;47.810;8.810;2023-05-07T13:11:57;2.35;;;1.00;;
4428;SDS011;2227;47.810;8.810;2023-05-07T13:14:27;2.72;;;1.00;;
4428;SDS011;2227;47.810;8.810;2023-05-07T13:16:54;2.63;;;1.15;;
4428;SDS011;2227;47.810;8.810;2023-05-07T13:19:20;2.28;;;1.15;;
4428;SDS011;2227;47.810;8.810;2023-05-07T13:21:47;2.33;;;1.10;;
4428;SDS011;2227;47.810;8.810;2023-05-07T13:24:15;1.58;;;0.88;;
4428;SDS011;2227;47.810;8.810;2023-05-07T13:26:42;1.33;;;0.98;;
4428;SDS011;2227;47.810;8.810;2023-05-07T13:29:11;2.35;;;0.90;;
4428;SDS011;2227;47.810;8.810;2023-05-07T13:31:38;1.92;;;0.90;;
4428;SDS011;2227;47.810;8.810;2023-05-07T13:34:09;2.05;;;0.90;;
4428;SDS011;2227;47.810;8.810;2023-05-07T13:36:36;1.33;;;0.90;;
4428;SDS011;2227;47.810;8.810;2023-05-07T13:39:05;2.35;;;0.90;;
4428;SDS011;2227;47.810;8.810;2023-05-07T13:41:32;1.60;;;0.85;;
4428;SDS011;2227;47.810;8.810;2023-05-07T13:43:59;2.38;;;1.13;;
4428;SDS011;2227;47.810;8.810;2023-05-07T13:46:25;2.33;;;1.05;;
4428;SDS011;2227;47.810;8.810;2023-05-07T13:48:52;3.92;;;1.40;;
4428;SDS011;2227;47.810;8.810;2023-05-07T13:51:19;2.15;;;1.20;;
4428;SDS011;2227;47.810;8.810;2023-05-07T13:53:46;2.30;;;1.00;;
4428;SDS011;2227;47.810;8.810;2023-05-07T13:56:13;3.08;;;1.23;;
4428;SDS011;2227;47.810;8.810;2023-05-07T13:58:40;3.05;;;1.30;;
4428;SDS011;2227;47.810;8.810;2023-05-07T14:01:21;2.67;;;1.00;;
4428;SDS011;2227;47.810;8.810;2023-05-07T14:03:48;2.78;;;1.23;;
4428;SDS011;2227;47.810;8.810;2023-05-07T14:06:15;3.05;;;1.33;;
4428;SDS011;2227;47.810;8.810;2023-05-07T14:08:42;3.60;;;1.52;;
4428;SDS011;2227;47.810;8.810;2023-05-07T14:11:08;1.95;;;1.13;;
4428;SDS011;2227;47.810;8.810;2023-05-07T14:13:35;1.67;;;1.00;;
4428;SDS011;2227;47.810;8.810;2023-05-07T14:16:03;1.85;;;1.10;;
4428;SDS011;2227;47.810;8.810;2023-05-07T14:18:30;3.05;;;1.20;;
4428;SDS011;2227;47.810;8.810;2023-05-07T14:20:57;3.53;;;1.65;;
4428;SDS011;2227;47.810;8.810;2023-05-07T14:23:24;3.90;;;1.70;;
4428;SDS011;2227;47.810;8.810;2023-05-07T14:25:52;3.05;;;1.67;;
4428;SDS011;2227;47.810;8.810;2023-05-07T14:28:19;4.10;;;1.13;;
4428;SDS011;2227;47.810;8.810;2023-05-07T14:30:46;2.90;;;1.30;;
4428;SDS011;2227;47.810;8.810;2023-05-07T14:33:13;2.47;;;1.30;;
4428;SDS011;2227;47.810;8.810;2023-05-07T14:35:40;2.00;;;1.15;;
4428;SDS011;2227;47.810;8.810;2023-05-07T14:38:06;1.75;;;0.88;;
4428;SDS011;2227;47.810;8.810;2023-05-07T14:40:33;2.00;;;1.10;;
4428;SDS011;2227;47.810;8.810;2023-05-07T14:43:00;1.42;;;0.80;;
4428;SDS011;2227;47.810;8.810;2023-05-07T14:45:27;2.03;;;0.90;;
4428;SDS011;2227;47.810;8.810;2023-05-07T14:47:54;3.03;;;0.90;;
4428;SDS011;2227;47.810;8.810;2023-05-07T14:50:21;1.67;;;0.98;;
4428;SDS011;2227;47.810;8.810;2023-05-07T14:52:48;1.67;;;0.90;;
4428;SDS011;2227;47.810;8.810;2023-05-07T14:55:15;1.45;;;0.70;;
4428;SDS011;2227;47.810;8.810;2023-05-07T14:57:41;1.70;;;0.93;;
4428;SDS011;2227;47.810;8.810;2023-05-07T15:00:08;1.65;;;0.98;;
4428;SDS011;2227;47.810;8.810;2023-05-07T15:02:35;1.83;;;0.93;;
4428;SDS011;2227;47.810;8.810;2023-05-07T15:05:03;2.40;;;1.15;;
4428;SDS011;2227;47.810;8.810;2023-05-07T15:07:29;1.73;;;1.10;;
4428;SDS011;2227;47.810;8.810;2023-05-07T15:09:58;1.73;;;1.00;;
4428;SDS011;2227;47.810;8.810;2023-05-07T15:12:25;2.25;;;1.20;;
4428;SDS011;2227;47.810;8.810;2023-05-07T15:14:52;2.47;;;1.10;;
4428;SDS011;2227;47.810;8.810;2023-05-07T15:17:18;2.33;;;0.93;;
4428;SDS011;2227;47.810;8.810;2023-05-07T15:19:45;2.45;;;1.20;;
4428;SDS011;2227;47.810;8.810;2023-05-07T15:22:12;1.98;;;0.93;;
4428;SDS011;2227;47.810;8.810;2023-05-07T15:24:39;2.05;;;1.17;;
4428;SDS011;2227;47.810;8.810;2023-05-07T15:27:06;2.75;;;1.30;;
4428;SDS011;2227;47.810;8.810;2023-05-07T15:29:33;3.35;;;1.15;;
4428;SDS011;2227;47.810;8.810;2023-05-07T15:32:00;2.08;;;1.20;;
4428;SDS011;2227;47.810;8.810;2023-05-07T15:34:27;2.90;;;1.00;;
4428;SDS011;2227;47.810;8.810;2023-05-07T15:36:54;2.33;;;1.20;;
4428;SDS011;2227;47.810;8.810;2023-05-07T15:39:22;1.83;;;1.20;;
4428;SDS011;2227;47.810;8.810;2023-05-07T15:41:50;1.60;;;1.05;;
4428;SDS011;2227;47.810;8.810;2023-05-07T15:44:17;1.83;;;1.10;;
4428;SDS011;2227;47.810;8.810;2023-05-07T15:46:43;1.83;;;1.23;;
4428;SDS011;2227;47.810;8.810;2023-05-07T15:49:10;2.15;;;1.10;;
4428;SDS011;2227;47.810;8.810;2023-05-07T15:51:37;1.80;;;1.08;;
4428;SDS011;2227;47.810;8.810;2023-05-07T15:54:03;1.77;;;1.00;;
4428;SDS011;2227;47.810;8.810;2023-05-07T15:56:30;2.28;;;1.20;;
4428;SDS011;2227;47.810;8.810;2023-05-07T15:58:59;2.97;;;1.70;;
4428;SDS011;2227;47.810;8.810;2023-05-07T16:01:25;1.95;;;1.00;;
4428;SDS011;2227;47.810;8.810;2023-05-07T16:03:52;2.55;;;1.35;;
4428;SDS011;2227;47.810;8.810;2023-05-07T16:06:19;1.17;;;0.80;;
4428;SDS011;2227;47.810;8.810;2023-05-07T16:08:46;2.40;;;1.27;;
4428;SDS011;2227;47.810;8.810;2023-05-07T16:11:13;2.25;;;1.33;;
4428;SDS011;2227;47.810;8.810;2023-05-07T16:13:40;2.58;;;1.00;;
4428;SDS011;2227;47.810;8.810;2023-05-07T16:16:06;2.10;;;1.08;;
4428;SDS011;2227;47.810;8.810;2023-05-07T16:18:33;1.58;;;0.80;;
4428;SDS011;2227;47.810;8.810;2023-05-07T16:21:02;2.42;;;1.05;;
4428;SDS011;2227;47.810;8.810;2023-05-07T16:23:29;2.15;;;0.90;;
4428;SDS011;2227;47.810;8.810;2023-05-07T16:25:56;1.50;;;0.98;;
4428;SDS011;2227;47.810;8.810;2023-05-07T16:28:23;1.98;;;1.10;;
4428;SDS011;2227;47.810;8.810;2023-05-07T16:30:51;1.15;;;0.80;;
4428;SDS011;2227;47.810;8.810;2023-05-07T16:33:17;1.95;;;1.00;;
4428;SDS011;2227;47.810;8.810;2023-05-07T16:35:49;1.75;;;0.90;;
4428;SDS011;2227;47.810;8.810;2023-05-07T16:38:17;1.63;;;1.10;;
4428;SDS011;2227;47.810;8.810;2023-05-07T16:40:44;1.20;;;0.70;;
4428;SDS011;2227;47.810;8.810;2023-05-07T16:43:11;1.67;;;0.93;;
4428;SDS011;2227;47.810;8.810;2023-05-07T16:48:10;1.98;;;0.88;;
4428;SDS011;2227;47.810;8.810;2023-05-07T16:50:36;1.92;;;1.13;;
4428;SDS011;2227;47.810;8.810;2023-05-07T16:53:04;1.90;;;0.95;;
4428;SDS011;2227;47.810;8.810;2023-05-07T16:55:31;3.33;;;1.30;;
4428;SDS011;2227;47.810;8.810;2023-05-07T16:58:04;2.90;;;1.35;;
4428;SDS011;2227;47.810;8.810;2023-05-07T17:00:31;1.88;;;1.23;;
4428;SDS011;2227;47.810;8.810;2023-05-07T17:03:15;2.13;;;1.27;;
4428;SDS011;2227;47.810;8.810;2023-05-07T17:05:42;3.58;;;1.42;;
4428;SDS011;2227;47.810;8.810;2023-05-07T17:08:09;2.42;;;1.15;;
4428;SDS011;2227;47.810;8.810;2023-05-07T17:10:35;3.63;;;1.88;;
4428;SDS011;2227;47.810;8.810;2023-05-07T17:13:02;3.05;;;1.50;;
4428;SDS011;2227;47.810;8.810;2023-05-07T17:15:29;4.13;;;1.98;;
4428;SDS011;2227;47.810;8.810;2023-05-07T17:17:56;3.95;;;2.22;;
4428;SDS011;2227;47.810;8.810;2023-05-07T17:20:22;3.13;;;2.00;;
4428;SDS011;2227;47.810;8.810;2023-05-07T17:22:50;3.40;;;1.88;;
4428;SDS011;2227;47.810;8.810;2023-05-07T17:25:17;2.88;;;1.80;;
4428;SDS011;2227;47.810;8.810;2023-05-07T17:27:43;2.95;;;1.58;;
4428;SDS011;2227;47.810;8.810;2023-05-07T17:30:10;2.13;;;1.40;;
4428;SDS011;2227;47.810;8.810;2023-05-07T17:32:38;3.60;;;1.42;;
4428;SDS011;2227;47.810;8.810;2023-05-07T17:35:05;2.30;;;1.52;;
4428;SDS011;2227;47.810;8.810;2023-05-07T17:37:32;3.13;;;1.58;;
4428;SDS011;2227;47.810;8.810;2023-05-07T17:39:59;2.83;;;1.67;;
4428;SDS011;2227;47.810;8.810;2023-05-07T17:42:26;4.07;;;2.20;;
4428;SDS011;2227;47.810;8.810;2023-05-07T17:44:53;3.50;;;1.90;;
4428;SDS011;2227;47.810;8.810;2023-05-07T17:47:20;2.85;;;1.60;;
4428;SDS011;2227;47.810;8.810;2023-05-07T17:49:47;4.00;;;1.80;;
4428;SDS011;2227;47.810;8.810;2023-05-07T17:52:14;3.25;;;1.70;;
4428;SDS011;2227;47.810;8.810;2023-05-07T17:54:40;3.42;;;1.70;;
4428;SDS011;2227;47.810;8.810;2023-05-07T17:57:07;2.53;;;1.58;;
4428;SDS011;2227;47.810;8.810;2023-05-07T17:59:34;3.00;;;1.55;;
4428;SDS011;2227;47.810;8.810;2023-05-07T18:02:00;3.50;;;1.67;;
4428;SDS011;2227;47.810;8.810;2023-05-07T18:04:27;2.58;;;1.52;;
4428;SDS011;2227;47.810;8.810;2023-05-07T18:06:54;3.30;;;1.60;;
4428;SDS011;2227;47.810;8.810;2023-05-07T18:09:22;2.33;;;1.20;;
4428;SDS011;2227;47.810;8.810;2023-05-07T18:11:48;2.88;;;1.48;;
4428;SDS011;2227;47.810;8.810;2023-05-07T18:14:15;3.65;;;1.40;;
4428;SDS011;2227;47.810;8.810;2023-05-07T18:16:42;2.55;;;1.10;;
4428;SDS011;2227;47.810;8.810;2023-05-07T18:19:09;3.50;;;1.80;;
4428;SDS011;2227;47.810;8.810;2023-05-07T18:21:36;3.13;;;1.50;;
4428;SDS011;2227;47.810;8.810;2023-05-07T18:24:03;3.80;;;2.00;;
4428;SDS011;2227;47.810;8.810;2023-05-07T18:26:30;4.28;;;2.25;;
4428;SDS011;2227;47.810;8.810;2023-05-07T18:28:57;4.18;;;2.20;;
4428;SDS011;2227;47.810;8.810;2023-05-07T18:31:23;4.40;;;2.40;;
4428;SDS011;2227;47.810;8.810;2023-05-07T18:33:50;3.78;;;2.60;;
4428;SDS011;2227;47.810;8.810;2023-05-07T18:36:17;6.70;;;3.38;;
4428;SDS011;2227;47.810;8.810;2023-05-07T18:38:44;3.35;;;2.42;;
4428;SDS011;2227;47.810;8.810;2023-05-07T18:41:11;3.55;;;2.10;;
4428;SDS011;2227;47.810;8.810;2023-05-07T18:43:38;3.38;;;2.20;;
4428;SDS011;2227;47.810;8.810;2023-05-07T18:46:04;3.20;;;2.10;;
4428;SDS011;2227;47.810;8.810;2023-05-07T18:48:31;5.93;;;3.95;;
4428;SDS011;2227;47.810;8.810;2023-05-07T18:50:58;4.07;;;2.60;;
4428;SDS011;2227;47.810;8.810;2023-05-07T18:53:25;4.20;;;2.80;;
4428;SDS011;2227;47.810;8.810;2023-05-07T18:55:53;4.38;;;2.80;;
4428;SDS011;2227;47.810;8.810;2023-05-07T18:58:20;3.72;;;2.80;;
4428;SDS011;2227;47.810;8.810;2023-05-07T19:00:47;4.93;;;3.30;;
4428;SDS011;2227;47.810;8.810;2023-05-07T19:03:15;4.68;;;3.08;;
4428;SDS011;2227;47.810;8.810;2023-05-07T19:05:42;5.63;;;4.07;;
4428;SDS011;2227;47.810;8.810;2023-05-07T19:08:09;6.05;;;4.10;;
4428;SDS011;2227;47.810;8.810;2023-05-07T19:10:36;5.00;;;3.63;;
4428;SDS011;2227;47.810;8.810;2023-05-07T19:13:03;4.00;;;2.90;;
4428;SDS011;2227;47.810;8.810;2023-05-07T19:15:30;5.15;;;3.30;;
4428;SDS011;2227;47.810;8.810;2023-05-07T19:17:57;6.63;;;4.13;;
4428;SDS011;2227;47.810;8.810;2023-05-07T19:20:24;4.53;;;3.63;;
4428;SDS011;2227;47.810;8.810;2023-05-07T19:22:50;3.45;;;2.47;;
4428;SDS011;2227;47.810;8.810;2023-05-07T19:25:17;4.05;;;2.95;;
4428;SDS011;2227;47.810;8.810;2023-05-07T19:27:44;4.07;;;1.50;;
4428;SDS011;2227;47.810;8.810;2023-05-07T19:30:12;2.20;;;1.30;;
4428;SDS011;2227;47.810;8.810;2023-05-07T19:32:40;1.63;;;1.05;;
4428;SDS011;2227;47.810;8.810;2023-05-07T19:35:06;2.80;;;1.38;;
4428;SDS011;2227;47.810;8.810;2023-05-07T19:37:34;3.03;;;1.45;;
4428;SDS011;2227;47.810;8.810;2023-05-07T19:40:00;2.53;;;1.45;;
4428;SDS011;2227;47.810;8.810;2023-05-07T19:42:31;2.92;;;1.50;;
4428;SDS011;2227;47.810;8.810;2023-05-07T19:44:58;4.25;;;1.95;;
4428;SDS011;2227;47.810;8.810;2023-05-07T19:47:25;3.83;;;1.88;;
4428;SDS011;2227;47.810;8.810;2023-05-07T19:49:52;3.05;;;1.83;;
4428;SDS011;2227;47.810;8.810;2023-05-07T19:52:18;3.72;;;2.05;;
4428;SDS011;2227;47.810;8.810;2023-05-07T19:54:45;4.38;;;2.20;;
4428;SDS011;2227;47.810;8.810;2023-05-07T19:57:12;3.05;;;1.85;;
4428;SDS011;2227;47.810;8.810;2023-05-07T19:59:39;3.70;;;2.15;;
4428;SDS011;2227;47.810;8.810;2023-05-07T20:02:06;3.22;;;1.98;;
4428;SDS011;2227;47.810;8.810;2023-05-07T20:04:33;3.28;;;1.90;;